Time;durP1;ratioP1;P1;durP2;ratioP2;P2;SDS_P1;SDS_P2;PMS_P1;PMS_P2;Temp;Humidity;BMP_temperature;BMP_pressure;BME280_temperature;BME280_humidity;BME280_pressure;Samples;Min_cycle;Max_cycle;Signal;HPM_P1;HPM_P2
2023/06/30 00:01:48;;;;;;;22.73;19.08;;;;;;;19.13;75.25;101302.97;7390558;19;20019;-59
2023/06/30 00:04:22;;;;;;;20.50;17.10;;;;;;;19.08;74.89;101316.88;7390592;19;20014;-59
2023/06/30 00:06:50;;;;;;;;;;;;;;;19.03;74.73;101324.53;7388026;19;20496;-61
2023/06/30 00:09:20;;;;;;;20.02;15.32;;;;;;;19.03;75.44;101321.00;7387662;19;19915;-56
2023/06/30 00:11:53;;;;;;;13.57;10.48;;;;;;;19.12;75.04;101323.63;7390310;19;20519;-58
2023/06/30 00:14:21;;;;;;;12.30;8.82;;;;;;;19.10;74.83;101322.91;7386650;19;20075;-58
2023/06/30 00:16:49;;;;;;;12.55;8.38;;;;;;;19.16;74.82;101316.09;7386748;19;20081;-58
2023/06/30 00:19:18;;;;;;;13.27;6.95;;;;;;;19.07;74.70;101317.84;7387189;19;20044;-58
2023/06/30 00:21:48;;;;;;;10.23;5.85;;;;;;;19.09;75.30;101331.97;7386409;19;20023;-60
2023/06/30 00:24:15;;;;;;;10.00;5.07;;;;;;;19.07;74.80;101328.59;7388320;19;20515;-60
2023/06/30 00:26:42;;;;;;;9.30;4.10;;;;;;;19.05;75.17;101325.22;7390211;19;20036;-59
2023/06/30 00:29:10;;;;;;;11.13;4.15;;;;;;;19.09;75.12;101326.59;7388505;19;20031;-59
2023/06/30 00:31:37;;;;;;;7.88;3.88;;;;;;;19.08;75.04;101311.50;7389862;19;20017;-60
2023/06/30 00:34:04;;;;;;;8.00;2.97;;;;;;;19.05;75.01;101301.06;7389078;19;20028;-60
2023/06/30 00:36:31;;;;;;;6.93;3.15;;;;;;;19.05;74.92;101295.69;7386412;19;20019;-57
2023/06/30 00:38:59;;;;;;;9.35;3.60;;;;;;;19.02;74.77;101298.69;7388610;19;20018;-58
2023/06/30 00:41:26;;;;;;;7.43;3.28;;;;;;;19.04;74.71;101304.75;7387204;19;20383;-58
2023/06/30 00:43:53;;;;;;;9.07;3.40;;;;;;;19.07;74.57;101298.22;7387525;19;20029;-59
2023/06/30 00:46:20;;;;;;;7.45;3.03;;;;;;;19.05;74.36;101305.59;7383729;19;20026;-58
2023/06/30 00:48:49;;;;;;;6.10;2.65;;;;;;;18.92;74.67;101303.28;7385380;19;20035;-57
2023/06/30 00:51:16;;;;;;;7.78;3.13;;;;;;;18.95;74.11;101295.75;7386462;19;20010;-57
2023/06/30 00:53:44;;;;;;;7.57;2.92;;;;;;;18.92;74.17;101297.91;7388021;19;20018;-57
2023/06/30 00:56:11;;;;;;;6.43;3.13;;;;;;;18.95;74.10;101294.94;7387493;19;20019;-57
2023/06/30 00:58:38;;;;;;;6.72;3.40;;;;;;;18.87;74.50;101290.34;7388505;19;20052;-57
2023/06/30 01:01:38;;;;;;;7.53;3.33;;;;;;;18.92;74.13;101300.59;7389133;19;20041;-57
2023/06/30 01:04:32;;;;;;;10.88;3.67;;;;;;;18.85;74.50;101304.88;7388484;19;20074;-57
2023/06/30 01:07:08;;;;;;;8.00;3.50;;;;;;;18.87;74.40;101305.59;7392815;19;20078;-56
2023/06/30 01:09:38;;;;;;;9.80;4.07;;;;;;;18.84;73.83;101306.72;7394820;19;20345;-57
2023/06/30 01:12:06;;;;;;;7.72;4.32;;;;;;;18.84;73.94;101305.91;7395698;19;20124;-56
2023/06/30 01:14:34;;;;;;;10.93;4.55;;;;;;;18.84;73.83;101313.94;7395584;19;20015;-56
2023/06/30 01:17:02;;;;;;;10.75;4.65;;;;;;;18.91;74.02;101313.19;7393409;19;20011;-56
2023/06/30 01:19:38;;;;;;;6.88;4.43;;;;;;;18.93;73.70;101318.41;7394809;19;20014;-56
2023/06/30 01:22:33;;;;;;;10.02;4.72;;;;;;;18.89;73.77;101319.72;7394694;19;20014;-57
2023/06/30 01:25:05;;;;;;;9.75;3.95;;;;;;;18.81;73.87;101322.28;7393040;19;20038;-56
2023/06/30 01:27:36;;;;;;;7.72;3.50;;;;;;;18.82;74.44;101324.84;7395514;19;20023;-56
2023/06/30 01:30:08;;;;;;;7.43;3.10;;;;;;;18.87;74.50;101324.38;7393763;19;20049;-57
2023/06/30 01:32:36;;;;;;;7.00;2.80;;;;;;;18.80;74.69;101313.41;7394531;19;20018;-56
2023/06/30 01:35:04;;;;;;;7.80;2.90;;;;;;;18.87;74.40;101316.34;7394835;19;20047;-57
2023/06/30 01:37:31;;;;;;;7.90;2.95;;;;;;;18.90;74.56;101316.88;7392583;19;20043;-56
2023/06/30 01:40:00;;;;;;;7.93;2.42;;;;;;;18.86;74.49;101320.03;7394250;19;20487;-57
2023/06/30 01:42:27;;;;;;;7.85;2.90;;;;;;;18.83;74.86;101325.69;7394715;19;20022;-56
2023/06/30 01:44:55;;;;;;;5.85;2.58;;;;;;;18.84;74.73;101336.25;7394796;19;20024;-57
2023/06/30 01:47:22;;;;;;;6.88;2.35;;;;;;;18.81;74.69;101331.22;7392310;19;20010;-57
2023/06/30 01:49:50;;;;;;;8.52;2.53;;;;;;;18.79;74.78;101322.47;7392971;19;20047;-57
2023/06/30 01:52:18;;;;;;;6.25;2.70;;;;;;;18.80;74.49;101320.63;7394564;19;20044;-58
2023/06/30 01:54:45;;;;;;;6.47;2.55;;;;;;;18.81;74.59;101319.63;7394397;19;20035;-58
2023/06/30 01:57:12;;;;;;;7.95;2.70;;;;;;;18.82;74.34;101315.97;7391792;19;20032;-57
2023/06/30 01:59:40;;;;;;;7.35;2.60;;;;;;;18.84;73.75;101319.31;7391744;19;20022;-57
2023/06/30 02:02:07;;;;;;;8.02;2.17;;;;;;;18.85;73.17;101307.56;7394416;19;20011;-58
2023/06/30 02:04:34;;;;;;;6.30;2.30;;;;;;;18.77;72.85;101304.81;7393863;19;20125;-58
2023/06/30 02:07:01;;;;;;;5.20;2.30;;;;;;;18.80;72.76;101304.53;7392900;19;20022;-59
2023/06/30 02:09:29;;;;;;;6.32;2.28;;;;;;;18.81;72.48;101295.47;7391210;19;20021;-60
2023/06/30 02:12:12;;;;;;;4.78;2.28;;;;;;;18.70;72.93;101305.44;7394264;19;20038;-52
2023/06/30 02:14:40;;;;;;;9.68;3.25;;;;;;;18.73;73.15;101297.09;7393134;19;20495;-51
2023/06/30 02:17:10;;;;;;;9.18;2.75;;;;;;;18.78;72.95;101293.09;7391525;19;20019;-58
2023/06/30 02:19:37;;;;;;;7.68;2.70;;;;;;;18.77;72.82;101286.88;7392984;19;20033;-58
2023/06/30 02:22:05;;;;;;;7.40;3.08;;;;;;;18.71;73.33;101285.66;7393741;19;20029;-58
2023/06/30 02:24:33;;;;;;;8.93;3.05;;;;;;;18.68;73.30;101291.28;7391702;19;20010;-58
2023/06/30 02:27:00;;;;;;;5.82;3.08;;;;;;;18.72;73.58;101286.50;7392727;19;20081;-58
2023/06/30 02:29:28;;;;;;;7.72;3.33;;;;;;;18.70;73.13;101288.47;7391963;19;20014;-57
2023/06/30 02:31:55;;;;;;;9.00;3.22;;;;;;;18.71;73.66;101292.88;7392686;19;20022;-58
2023/06/30 02:34:23;;;;;;;7.97;3.30;;;;;;;18.68;73.64;101288.59;7392771;19;20129;-59
2023/06/30 02:36:50;;;;;;;9.15;3.63;;;;;;;18.64;74.10;101289.06;7391523;19;20498;-59
2023/06/30 02:39:17;;;;;;;8.48;3.38;;;;;;;18.66;73.47;101284.38;7391526;19;20022;-59
2023/06/30 02:41:45;;;;;;;9.65;3.20;;;;;;;18.65;74.16;101298.81;7393068;19;20024;-59
2023/06/30 02:44:12;;;;;;;8.93;3.63;;;;;;;18.61;74.18;101298.25;7392769;19;20092;-59
2023/06/30 02:46:39;;;;;;;9.02;3.70;;;;;;;18.61;74.16;101308.16;7391834;19;20335;-59
2023/06/30 02:49:06;;;;;;;9.82;4.47;;;;;;;18.61;73.68;101309.00;7391769;19;20047;-58
2023/06/30 02:51:34;;;;;;;7.38;4.10;;;;;;;18.56;74.16;101303.25;7389601;19;20026;-54
2023/06/30 02:54:01;;;;;;;9.35;3.97;;;;;;;18.57;74.45;101304.09;7392499;19;20011;-52
2023/06/30 02:56:28;;;;;;;7.70;3.60;;;;;;;18.58;74.55;101301.25;7390983;19;20029;-53
2023/06/30 02:58:55;;;;;;;8.35;3.83;;;;;;;18.56;74.99;101303.25;7389987;19;20018;-53
2023/06/30 03:01:22;;;;;;;8.25;4.63;;;;;;;18.55;75.03;101293.53;7391894;19;20014;-52
2023/06/30 03:03:50;;;;;;;7.88;4.50;;;;;;;18.46;75.65;101289.03;7392130;19;20018;-54
2023/06/30 03:06:17;;;;;;;9.15;4.18;;;;;;;18.55;75.27;101290.84;7390993;19;20531;-52
2023/06/30 03:08:44;;;;;;;11.70;4.63;;;;;;;18.58;75.36;101297.72;7389389;19;20409;-51
2023/06/30 03:11:12;;;;;;;11.77;5.50;;;;;;;18.57;74.95;101302.25;7390159;19;20014;-55
2023/06/30 03:13:39;;;;;;;8.85;4.85;;;;;;;18.58;74.78;101303.09;7391831;19;20398;-52
2023/06/30 03:16:07;;;;;;;9.10;4.65;;;;;;;18.63;74.56;101290.91;7388569;19;20349;-52
2023/06/30 03:18:34;;;;;;;13.60;5.40;;;;;;;18.59;74.43;101283.34;7391158;19;20015;-54
2023/06/30 03:21:01;;;;;;;10.98;5.10;;;;;;;18.56;74.81;101281.78;7390929;19;20077;-52
2023/06/30 03:23:29;;;;;;;10.43;4.88;;;;;;;18.55;74.68;101292.69;7389792;19;20366;-52
2023/06/30 03:25:56;;;;;;;11.73;4.90;;;;;;;18.54;74.61;101290.97;7390764;19;20119;-52
2023/06/30 03:28:23;;;;;;;8.80;4.70;;;;;;;18.46;75.03;101295.25;7393929;19;20036;-54
2023/06/30 03:30:51;;;;;;;9.35;5.15;;;;;;;18.47;75.16;101307.69;7390544;19;20018;-50
2023/06/30 03:33:19;;;;;;;11.32;5.05;;;;;;;18.57;74.98;101306.78;7390930;19;20014;-52
2023/06/30 03:35:46;;;;;;;10.48;4.78;;;;;;;18.52;74.97;101300.03;7390414;19;20456;-51
2023/06/30 03:38:14;;;;;;;10.68;5.35;;;;;;;18.49;74.49;101297.63;7390361;19;20025;-54
2023/06/30 03:40:41;;;;;;;11.85;5.03;;;;;;;18.51;74.84;101300.19;7391278;19;20470;-54
2023/06/30 03:43:10;;;;;;;8.43;5.07;;;;;;;18.58;74.51;101306.59;7390641;19;20487;-54
2023/06/30 03:45:38;;;;;;;11.35;5.72;;;;;;;18.58;74.58;101305.75;7390806;19;20019;-52
2023/06/30 03:48:05;;;;;;;10.95;5.40;;;;;;;18.60;74.46;101301.94;7390178;19;20014;-50
2023/06/30 03:50:32;;;;;;;13.93;6.03;;;;;;;18.55;74.78;101301.56;7390371;19;20018;-58
2023/06/30 03:53:00;;;;;;;12.35;5.47;;;;;;;18.56;74.72;101307.78;7388909;19;20026;-54
2023/06/30 03:55:27;;;;;;;12.25;5.50;;;;;;;18.46;75.17;101305.97;7390904;19;20056;-56
2023/06/30 03:57:54;;;;;;;12.23;5.95;;;;;;;18.43;75.09;101308.13;7390293;19;20025;-56
2023/06/30 04:00:21;;;;;;;10.82;5.50;;;;;;;18.51;74.95;101313.59;7390018;19;20086;-56
2023/06/30 04:02:49;;;;;;;12.90;5.50;;;;;;;18.53;74.69;101311.59;7388845;19;20026;-58
2023/06/30 04:05:16;;;;;;;9.07;5.43;;;;;;;18.54;75.02;101318.63;7390492;19;20015;-59
2023/06/30 04:07:43;;;;;;;10.68;5.57;;;;;;;18.47;75.13;101309.53;7388264;19;20021;-60
2023/06/30 04:10:10;;;;;;;9.50;5.20;;;;;;;18.52;75.22;101307.22;7389270;19;20014;-58
2023/06/30 04:12:38;;;;;;;12.90;6.40;;;;;;;18.56;74.87;101310.47;7390226;19;20043;-58
2023/06/30 04:15:07;;;;;;;9.75;5.72;;;;;;;18.51;75.28;101314.44;7390085;19;20039;-60
2023/06/30 04:17:35;;;;;;;12.85;5.95;;;;;;;18.53;75.14;101308.91;7389405;19;20014;-51
2023/06/30 04:20:09;;;;;;;13.13;5.65;;;;;;;18.54;75.12;101309.75;7387111;19;20014;-54
2023/06/30 04:22:37;;;;;;;12.40;5.60;;;;;;;18.53;74.79;101303.53;7388176;19;20022;-53
2023/06/30 04:25:06;;;;;;;11.52;4.78;;;;;;;18.59;74.90;101300.28;7389714;19;20058;-51
2023/06/30 04:27:34;;;;;;;10.68;5.00;;;;;;;18.64;74.40;101319.44;7391479;19;20571;-53
2023/06/30 04:30:01;;;;;;;13.45;5.30;;;;;;;18.56;74.33;101319.34;7389301;19;20090;-51
2023/06/30 04:32:30;;;;;;;12.27;5.78;;;;;;;18.55;74.48;101316.81;7389734;19;20512;-49
2023/06/30 04:34:58;;;;;;;10.85;4.82;;;;;;;18.53;74.41;101308.91;7389864;19;20022;-53
2023/06/30 04:37:28;;;;;;;9.00;5.05;;;;;;;18.56;74.66;101299.72;7388631;19;20014;-52
2023/06/30 04:39:57;;;;;;;13.85;5.28;;;;;;;18.58;74.81;101309.28;7391814;19;20096;-52
2023/06/30 04:42:27;;;;;;;12.75;4.90;;;;;;;18.56;74.60;101307.78;7397257;19;20361;-54
2023/06/30 04:44:54;;;;;;;9.85;4.70;;;;;;;18.53;74.58;101311.59;7392721;19;20023;-54
2023/06/30 04:47:21;;;;;;;12.73;4.68;;;;;;;18.54;74.58;101313.28;7393526;19;20023;-54
2023/06/30 04:49:49;;;;;;;12.98;6.07;;;;;;;18.58;73.97;101306.59;7394105;19;20504;-53
2023/06/30 04:52:16;;;;;;;10.43;4.95;;;;;;;18.64;74.02;101311.38;7392662;19;20043;-51
2023/06/30 04:54:43;;;;;;;12.57;5.57;;;;;;;18.59;74.09;101305.63;7395123;19;20023;-52
2023/06/30 04:57:11;;;;;;;9.50;5.55;;;;;;;18.62;74.46;101307.16;7394806;19;20026;-52
2023/06/30 04:59:38;;;;;;;11.98;5.50;;;;;;;18.64;74.03;101311.38;7395780;19;20024;-53
2023/06/30 05:02:06;;;;;;;13.65;5.63;;;;;;;18.65;74.16;101317.59;7395670;19;20018;-52
2023/06/30 05:04:33;;;;;;;10.55;4.55;;;;;;;18.62;74.14;101318.75;7396039;19;20082;-52
2023/06/30 05:07:00;;;;;;;11.48;5.68;;;;;;;18.65;74.29;101321.09;7394461;19;20495;-50
2023/06/30 05:09:28;;;;;;;11.07;4.60;;;;;;;18.66;74.16;101316.56;7395154;19;20035;-54
2023/06/30 05:11:55;;;;;;;12.05;5.05;;;;;;;18.72;73.92;101313.34;7394197;19;20034;-49
2023/06/30 05:14:22;;;;;;;10.60;4.72;;;;;;;18.69;74.02;101305.53;7395566;19;20022;-50
2023/06/30 05:16:49;;;;;;;13.15;4.72;;;;;;;18.68;73.54;101312.75;7393163;19;20030;-49
2023/06/30 05:19:17;;;;;;;17.98;4.97;;;;;;;18.74;73.26;101309.50;7395280;19;20010;-49
2023/06/30 05:21:44;;;;;;;11.50;4.75;;;;;;;18.79;73.05;101310.88;7394623;19;20078;-49
2023/06/30 05:24:11;;;;;;;13.48;5.13;;;;;;;18.76;73.16;101309.34;7395506;19;20022;-49
2023/06/30 05:26:39;;;;;;;12.18;4.78;;;;;;;18.77;73.04;101316.38;7393530;19;20037;-51
2023/06/30 05:29:06;;;;;;;10.60;4.07;;;;;;;18.78;72.88;101314.56;7392791;19;20018;-53
2023/06/30 05:31:33;;;;;;;12.63;4.70;;;;;;;18.71;73.09;101314.34;7394017;19;20011;-50
2023/06/30 05:34:01;;;;;;;11.45;4.63;;;;;;;18.68;73.26;101317.28;7394841;19;20077;-50
2023/06/30 05:36:30;;;;;;;10.18;4.50;;;;;;;18.61;72.75;101314.34;7393026;19;20022;-48
2023/06/30 05:38:57;;;;;;;9.25;4.43;;;;;;;18.57;72.84;101312.97;7393706;19;20018;-48
2023/06/30 05:41:24;;;;;;;9.00;4.43;;;;;;;18.56;72.98;101316.66;7395004;19;20018;-48
2023/06/30 05:43:51;;;;;;;9.43;3.90;;;;;;;18.64;72.85;101313.22;7394538;19;20072;-51
2023/06/30 05:46:18;;;;;;;8.55;4.10;;;;;;;18.65;73.11;101317.59;7394570;19;20025;-48
2023/06/30 05:48:46;;;;;;;13.88;5.15;;;;;;;18.61;72.61;101316.19;7394108;19;20014;-50
2023/06/30 05:51:13;;;;;;;9.20;4.10;;;;;;;18.73;72.12;101312.31;7392437;19;20039;-51
2023/06/30 05:53:40;;;;;;;11.20;4.65;;;;;;;18.89;71.86;101311.66;7395169;19;20030;-52
2023/06/30 05:56:07;;;;;;;8.25;4.50;;;;;;;18.92;71.58;101320.22;7392035;19;20023;-51
2023/06/30 05:58:37;;;;;;;8.90;4.22;;;;;;;18.96;71.22;101318.09;7393934;19;20015;-49
2023/06/30 06:01:05;;;;;;;9.68;4.55;;;;;;;18.93;71.21;101316.56;7392418;19;20018;-50
2023/06/30 06:03:32;;;;;;;10.00;4.03;;;;;;;19.02;70.83;101324.69;7394034;19;20015;-49
2023/06/30 06:05:59;;;;;;;11.25;4.20;;;;;;;19.10;70.21;101330.13;7393781;19;20015;-50
2023/06/30 06:08:27;;;;;;;10.15;3.72;;;;;;;19.14;69.67;101321.59;7393794;19;20096;-50
2023/06/30 06:10:54;;;;;;;10.50;4.10;;;;;;;19.24;70.11;101322.38;7392448;19;20022;-49
2023/06/30 06:13:32;;;;;;;7.47;3.60;;;;;;;19.27;69.39;101329.28;7392374;19;20010;-48
2023/06/30 06:16:00;;;;;;;8.45;3.45;;;;;;;19.25;69.57;101333.94;7394142;19;20026;-50
2023/06/30 06:18:27;;;;;;;8.70;4.13;;;;;;;19.25;69.37;101328.56;7393182;19;20020;-53
2023/06/30 06:20:56;;;;;;;13.05;4.60;;;;;;;19.20;69.71;101331.72;7393765;19;20023;-53
2023/06/30 06:23:24;;;;;;;10.55;3.67;;;;;;;19.16;69.56;101325.00;7393271;19;20043;-49
2023/06/30 06:25:51;;;;;;;7.80;2.95;;;;;;;19.17;69.53;101337.41;7393489;19;20015;-52
2023/06/30 06:28:18;;;;;;;10.18;3.28;;;;;;;19.20;69.15;101339.78;7396786;19;20015;-52
2023/06/30 06:30:45;;;;;;;7.25;3.05;;;;;;;19.24;69.19;101333.09;7393205;19;20030;-51
2023/06/30 06:33:13;;;;;;;6.32;2.90;;;;;;;19.29;68.87;101337.16;7392674;19;20018;-49
2023/06/30 06:35:40;;;;;;;10.43;2.67;;;;;;;19.23;68.86;101341.31;7393409;19;20048;-51
2023/06/30 06:38:08;;;;;;;5.63;2.22;;;;;;;19.26;68.59;101342.84;7390621;19;20019;-50
2023/06/30 06:40:35;;;;;;;8.82;2.88;;;;;;;19.28;68.71;101348.91;7392530;19;20025;-53
2023/06/30 06:43:02;;;;;;;8.13;3.63;;;;;;;19.15;68.80;101343.91;7392782;19;20355;-49
2023/06/30 06:45:29;;;;;;;8.45;3.58;;;;;;;19.11;68.73;101345.22;7392020;19;20019;-52
2023/06/30 06:48:26;;;;;;;8.65;3.10;;;;;;;19.08;68.56;101351.78;7390653;19;20010;-52
2023/06/30 06:50:56;;;;;;;10.70;2.50;;;;;;;18.98;68.92;101346.47;7392418;19;20033;-53
2023/06/30 06:53:29;;;;;;;12.40;3.45;;;;;;;19.04;68.89;101357.59;7391225;19;20021;-50
2023/06/30 06:55:57;;;;;;;9.52;2.70;;;;;;;19.22;68.73;101361.09;7392210;19;20029;-53
2023/06/30 06:58:27;;;;;;;9.45;3.15;;;;;;;19.34;68.40;101359.03;7391770;19;20025;-49
2023/06/30 07:00:55;;;;;;;8.88;3.85;;;;;;;19.14;69.45;101353.81;7392131;19;20019;-52
2023/06/30 07:03:23;;;;;;;13.15;3.75;;;;;;;19.01;70.20;101353.38;7389884;19;20018;-49
2023/06/30 07:05:50;;;;;;;9.02;3.38;;;;;;;18.98;70.65;101353.69;7392185;19;20082;-50
2023/06/30 07:08:21;;;;;;;10.07;3.38;;;;;;;19.05;70.07;101352.06;7390834;19;20389;-51
2023/06/30 07:10:50;;;;;;;7.90;2.75;;;;;;;19.05;69.23;101341.34;7392062;19;20058;-49
2023/06/30 07:13:19;;;;;;;7.25;2.65;;;;;;;19.16;68.17;101343.78;7389752;19;20467;-50
2023/06/30 07:15:50;;;;;;;6.57;2.22;;;;;;;19.33;66.94;101338.53;7391849;19;20079;-51
2023/06/30 07:18:18;;;;;;;6.72;2.42;;;;;;;19.41;66.48;101335.91;7390882;19;20475;-48
2023/06/30 07:20:47;;;;;;;5.78;2.15;;;;;;;19.52;65.76;101332.97;7392109;19;20014;-53
2023/06/30 07:23:15;;;;;;;4.43;1.80;;;;;;;19.57;65.74;101335.19;7391808;19;20022;-54
2023/06/30 07:25:47;;;;;;;5.65;2.13;;;;;;;19.59;65.26;101338.56;7389656;19;20397;-50
2023/06/30 07:28:15;;;;;;;6.03;2.35;;;;;;;19.40;66.05;101347.66;7394520;19;20674;-48
2023/06/30 07:30:42;;;;;;;9.85;2.60;;;;;;;19.32;66.07;101339.56;7391802;19;20017;-54
2023/06/30 07:33:12;;;;;;;7.90;2.45;;;;;;;19.43;65.53;101339.31;7389830;19;20022;-55
2023/06/30 07:35:40;;;;;;;6.90;2.10;;;;;;;19.57;64.71;101332.50;7390554;19;20038;-55
2023/06/30 07:38:08;;;;;;;5.80;2.08;;;;;;;19.72;64.73;101339.84;7388642;19;20019;-51
2023/06/30 07:40:35;;;;;;;5.40;2.33;;;;;;;19.90;64.83;101334.44;7390928;19;20042;-55
2023/06/30 07:43:05;;;;;;;6.10;2.05;;;;;;;19.82;64.51;101336.22;7389638;19;20021;-50
2023/06/30 07:45:32;;;;;;;6.85;2.00;;;;;;;19.86;64.50;101334.91;7390412;19;20028;-49
2023/06/30 07:47:59;;;;;;;9.40;2.20;;;;;;;19.81;64.59;101338.09;7389033;19;20749;-53
2023/06/30 07:50:27;;;;;;;6.28;1.90;;;;;;;19.71;64.71;101326.59;7390225;19;20078;-51
2023/06/30 07:52:55;;;;;;;7.38;2.00;;;;;;;19.66;64.65;101337.81;7389751;19;20021;-53
2023/06/30 07:55:22;;;;;;;5.43;1.95;;;;;;;19.71;64.17;101334.66;7390919;19;20023;-54
2023/06/30 07:57:51;;;;;;;7.28;2.78;;;;;;;19.61;63.95;101341.94;7387675;19;20018;-52
2023/06/30 08:00:18;;;;;;;7.05;1.60;;;;;;;19.65;64.10;101343.31;7390014;19;20018;-52
2023/06/30 08:02:48;;;;;;;7.68;2.22;;;;;;;19.63;63.35;101332.75;7390187;19;20014;-54
2023/06/30 08:05:15;;;;;;;6.70;1.70;;;;;;;19.60;62.47;101335.72;7390769;19;20022;-50
2023/06/30 08:07:46;;;;;;;5.28;1.88;;;;;;;19.70;62.46;101339.19;7388633;19;20022;-52
2023/06/30 08:10:18;;;;;;;6.25;1.70;;;;;;;19.80;62.68;101344.44;7388123;19;20011;-55
2023/06/30 08:12:46;;;;;;;4.40;1.45;;;;;;;19.84;62.05;101344.97;7388713;19;20031;-54
2023/06/30 08:15:13;;;;;;;3.13;1.42;;;;;;;19.89;60.75;101348.03;7395997;19;20023;-49
2023/06/30 08:17:40;;;;;;;5.28;1.30;;;;;;;19.93;60.15;101341.34;7394697;19;20022;-50
2023/06/30 08:20:24;;;;;;;4.95;1.50;;;;;;;19.98;60.63;101347.06;7397929;19;20015;-50
2023/06/30 08:22:52;;;;;;;6.65;1.42;;;;;;;20.01;60.51;101349.44;7397192;19;20014;-53
2023/06/30 08:25:24;;;;;;;3.42;1.10;;;;;;;20.04;59.17;101346.44;7398754;19;20014;-53
2023/06/30 08:27:51;;;;;;;5.90;1.40;;;;;;;20.19;58.90;101354.75;7398580;19;20040;-51
2023/06/30 08:30:19;;;;;;;5.88;1.50;;;;;;;20.35;57.67;101348.59;7396183;19;20499;-55
2023/06/30 08:32:51;;;;;;;5.15;1.40;;;;;;;20.49;57.63;101349.81;7395763;19;20011;-52
2023/06/30 08:35:19;;;;;;;7.95;2.22;;;;;;;20.51;58.75;101332.53;7397166;19;20034;-51
2023/06/30 08:37:46;;;;;;;8.93;2.35;;;;;;;20.57;58.27;101331.03;7394288;19;20018;-51
2023/06/30 08:40:25;;;;;;;5.18;1.40;;;;;;;20.42;58.80;101341.56;7395989;19;20022;-54
2023/06/30 08:42:53;;;;;;;5.45;1.40;;;;;;;20.27;58.69;101338.63;7395295;19;20019;-55
2023/06/30 08:45:25;;;;;;;6.15;1.40;;;;;;;20.17;58.48;101343.28;7396532;19;20376;-55
2023/06/30 08:47:53;;;;;;;3.13;1.20;;;;;;;20.01;58.74;101329.78;7395130;19;20027;-56
2023/06/30 08:50:22;;;;;;;4.15;1.30;;;;;;;19.92;58.38;101328.91;7398062;19;20018;-51
2023/06/30 08:52:50;;;;;;;4.30;1.40;;;;;;;19.97;58.86;101334.63;7395164;19;20022;-54
2023/06/30 08:55:17;;;;;;;6.10;1.60;;;;;;;19.98;59.45;101336.31;7396136;19;20018;-55
2023/06/30 08:57:45;;;;;;;6.40;1.25;;;;;;;20.10;58.52;101335.03;7393914;19;20021;-55
2023/06/30 09:00:14;;;;;;;5.50;1.58;;;;;;;20.20;57.21;101333.06;7394169;19;20049;-56
2023/06/30 09:02:43;;;;;;;3.20;1.10;;;;;;;20.34;55.99;101333.47;7394535;19;20048;-56
2023/06/30 09:05:11;;;;;;;3.78;1.10;;;;;;;20.45;54.64;101335.81;7395113;19;20107;-54
2023/06/30 09:07:45;;;;;;;5.43;1.20;;;;;;;20.53;54.31;101326.97;7392746;19;20536;-53
2023/06/30 09:10:14;;;;;;;4.90;1.08;;;;;;;20.63;53.71;101328.50;7396240;19;20360;-55
2023/06/30 09:12:46;;;;;;;3.03;1.00;;;;;;;20.72;54.06;101328.53;7394811;19;20015;-55
2023/06/30 09:15:17;;;;;;;5.07;1.42;;;;;;;20.59;55.35;101332.53;7396172;19;20041;-54
2023/06/30 09:17:45;;;;;;;4.22;1.42;;;;;;;20.51;56.12;101329.84;7393797;19;20015;-53
2023/06/30 09:20:13;;;;;;;5.18;2.00;;;;;;;20.50;56.40;101330.00;7395428;19;20010;-54
2023/06/30 09:22:40;;;;;;;7.03;1.50;;;;;;;20.43;56.91;101335.16;7394178;19;20021;-52
2023/06/30 09:25:24;;;;;;;5.85;1.52;;;;;;;20.33;57.39;101335.28;7393624;19;20018;-55
2023/06/30 09:27:53;;;;;;;4.28;1.40;;;;;;;20.34;57.54;101331.63;7395066;19;20017;-54
2023/06/30 09:30:34;;;;;;;4.53;1.50;;;;;;;20.42;57.89;101333.50;7394168;19;20046;-52
2023/06/30 09:33:02;;;;;;;6.50;1.63;;;;;;;20.44;58.20;101337.69;7393857;19;20011;-53
2023/06/30 09:35:37;;;;;;;5.43;1.27;;;;;;;20.60;56.85;101328.84;7395442;19;20018;-55
2023/06/30 09:38:15;;;;;;;6.13;1.10;;;;;;;20.76;55.94;101325.38;7391819;19;20018;-52
2023/06/30 09:40:44;;;;;;;2.63;1.30;;;;;;;20.79;55.57;101326.88;7394405;19;20014;-51
2023/06/30 09:43:21;;;;;;;6.10;1.60;;;;;;;20.82;54.20;101316.59;7366371;19;20019;-54
2023/06/30 09:45:59;;;;;;;5.57;1.30;;;;;;;20.79;54.53;101324.16;7384220;19;20049;-51
2023/06/30 09:48:38;;;;;;;4.20;1.30;;;;;;;20.90;54.02;101322.00;7381816;19;20015;-55
2023/06/30 09:51:07;;;;;;;2.72;0.80;;;;;;;20.88;54.56;101324.03;7394800;19;20011;-51
2023/06/30 09:53:39;;;;;;;5.82;1.40;;;;;;;20.93;54.91;101318.13;7392259;19;20026;-54
2023/06/30 09:56:08;;;;;;;3.42;1.15;;;;;;;20.95;54.49;101313.44;7393602;19;20014;-53
2023/06/30 09:58:39;;;;;;;3.92;1.35;;;;;;;20.99;54.17;101320.19;7394246;19;20019;-53
2023/06/30 10:01:24;;;;;;;5.22;1.35;;;;;;;20.98;55.07;101318.47;7395344;19;20021;-52
2023/06/30 10:03:55;;;;;;;5.82;1.50;;;;;;;;;;7396623;19;20037;-51
2023/06/30 10:06:24;;;;;;;4.72;1.20;;;;;;;21.16;54.72;101318.31;7393714;19;20082;-50
2023/06/30 10:08:52;;;;;;;5.60;1.35;;;;;;;21.18;53.74;101313.63;7395177;19;20026;-52
2023/06/30 10:11:22;;;;;;;7.20;1.40;;;;;;;21.15;52.52;101314.78;7394359;19;20018;-53
2023/06/30 10:13:57;;;;;;;3.10;1.15;;;;;;;21.15;51.48;101317.47;7390068;19;20026;-56
2023/06/30 10:16:26;;;;;;;5.38;1.00;;;;;;;21.07;50.89;101314.78;7392990;19;20030;-56
2023/06/30 10:18:55;;;;;;;4.85;1.42;;;;;;;21.06;50.71;101320.31;7395955;19;20015;-53
2023/06/30 10:21:41;;;;;;;3.60;1.13;;;;;;;21.15;50.87;101322.03;7395463;19;20024;-55
2023/06/30 10:24:10;;;;;;;4.32;1.10;;;;;;;21.29;50.58;101315.09;7394124;19;20098;-54
2023/06/30 10:26:38;;;;;;;4.82;1.10;;;;;;;21.40;50.71;101318.31;7392497;19;20028;-53
2023/06/30 10:29:06;;;;;;;3.00;1.13;;;;;;;21.56;50.63;101309.41;7394896;19;20006;-54
2023/06/30 10:31:35;;;;;;;2.67;1.10;;;;;;;21.53;50.89;101311.59;7394805;19;20021;-55
2023/06/30 10:34:02;;;;;;;6.82;1.38;;;;;;;21.59;50.42;101313.59;7396316;19;20006;-54
2023/06/30 10:36:30;;;;;;;3.15;1.13;;;;;;;21.75;49.17;101297.41;7393882;19;20021;-52
2023/06/30 10:38:57;;;;;;;2.80;1.13;;;;;;;21.80;47.05;101296.88;7395819;19;20010;-52
2023/06/30 10:41:25;;;;;;;3.78;0.93;;;;;;;21.76;46.46;101296.38;7395614;19;20026;-55
2023/06/30 10:44:01;;;;;;;2.78;0.82;;;;;;;21.72;46.82;101286.09;7396563;19;20017;-55
2023/06/30 10:46:47;;;;;;;3.13;1.10;;;;;;;21.78;46.99;101280.00;7394447;19;20010;-55
2023/06/30 10:49:31;;;;;;;4.15;1.35;;;;;;;21.65;48.26;101286.78;7394701;19;20033;-51
2023/06/30 10:52:00;;;;;;;4.97;1.17;;;;;;;21.75;48.40;101283.91;7395250;19;20018;-49
2023/06/30 10:54:37;;;;;;;4.75;1.67;;;;;;;21.92;49.41;101292.78;7393550;19;20017;-54
2023/06/30 10:57:14;;;;;;;4.60;1.27;;;;;;;21.98;48.61;101278.59;7393737;19;20010;-52
2023/06/30 10:59:43;;;;;;;6.15;1.52;;;;;;;22.10;49.31;101287.97;7394384;19;20018;-50
2023/06/30 11:05:16;;;;;;;4.40;1.30;;;;;;;22.14;47.95;101283.13;7256917;19;20958;-63
2023/06/30 11:08:09;;;;;;;3.45;1.27;;;;;;;22.23;48.40;101275.81;7391849;19;20377;-62
2023/06/30 11:10:43;;;;;;;2.95;1.42;;;;;;;22.25;47.59;101280.03;7394921;19;20022;-62
2023/06/30 11:13:11;;;;;;;4.43;1.30;;;;;;;22.06;47.42;101286.66;7392270;19;20018;-63
2023/06/30 11:15:44;;;;;;;2.97;1.02;;;;;;;22.02;48.01;101277.25;7391522;19;20014;-61
2023/06/30 11:18:15;;;;;;;4.35;1.30;;;;;;;21.92;48.04;101282.00;7392454;19;20042;-62
2023/06/30 11:21:05;;;;;;;4.68;1.60;;;;;;;21.85;48.14;101278.31;7393768;19;20011;-62
2023/06/30 11:23:41;;;;;;;8.48;2.03;;;;;;;21.79;49.06;101274.47;7394998;19;20027;-61
2023/06/30 11:26:13;;;;;;;8.00;1.55;;;;;;;21.86;49.73;101277.28;7392478;19;20014;-61
2023/06/30 11:28:42;;;;;;;7.03;1.52;;;;;;;21.69;49.79;101278.38;7395405;19;20014;-61
2023/06/30 11:31:12;;;;;;;5.68;1.35;;;;;;;21.56;50.07;101282.44;7392881;19;20031;-62
2023/06/30 11:33:41;;;;;;;5.10;1.27;;;;;;;21.54;49.31;101279.06;7377836;19;20002;-61
2023/06/30 11:36:16;;;;;;;5.13;1.50;;;;;;;21.60;49.26;101275.69;7392132;19;20019;-61
2023/06/30 11:38:47;;;;;;;5.32;1.20;;;;;;;21.75;48.88;101264.16;7391110;19;20014;-62